createdAt,value
2023-03-30T00:00:49.313Z,79.00
2023-03-30T00:03:19.469Z,78.90
2023-03-30T00:05:46.666Z,78.90
2023-03-30T00:08:18.680Z,79.00
2023-03-30T00:10:46.507Z,79.20
2023-03-30T00:13:13.797Z,79.20
2023-03-30T00:15:41.660Z,79.00
2023-03-30T00:18:09.216Z,78.90
2023-03-30T00:20:37.630Z,78.80
2023-03-30T00:23:04.934Z,78.60
2023-03-30T00:25:31.942Z,78.70
2023-03-30T00:27:58.818Z,78.80
2023-03-30T00:30:25.984Z,78.90
2023-03-30T00:32:53.873Z,78.90
2023-03-30T00:35:21.099Z,79.10
2023-03-30T00:37:49.781Z,79.20
2023-03-30T00:40:20.525Z,79.40
2023-03-30T00:42:49.114Z,79.50
2023-03-30T00:45:27.875Z,79.40
2023-03-30T00:48:00.111Z,79.50
2023-03-30T00:50:36.934Z,79.30
2023-03-30T00:53:10.203Z,79.30
2023-03-30T00:55:41.396Z,79.40
2023-03-30T00:58:11.743Z,79.50
2023-03-30T01:00:40.010Z,79.80
2023-03-30T01:03:35.465Z,80.60
2023-03-30T01:06:07.531Z,80.90
2023-03-30T01:08:37.212Z,80.40
2023-03-30T01:11:06.802Z,80.60
2023-03-30T01:13:36.760Z,80.60
2023-03-30T01:16:35.565Z,80.60
2023-03-30T01:19:03.158Z,80.50
2023-03-30T01:21:48.688Z,80.40
2023-03-30T01:24:34.785Z,80.40
2023-03-30T01:27:46.475Z,80.70
2023-03-30T01:30:43.754Z,80.90
2023-03-30T01:33:41.232Z,81.10
2023-03-30T01:36:35.365Z,81.40
2023-03-30T01:39:23.597Z,81.30
2023-03-30T01:41:56.364Z,81.00
2023-03-30T01:44:34.434Z,80.80
2023-03-30T01:47:12.421Z,80.90
2023-03-30T01:49:49.276Z,81.10
2023-03-30T01:52:23.527Z,81.40
2023-03-30T01:55:08.978Z,81.70
2023-03-30T01:57:51.505Z,82.00
2023-03-30T02:00:22.617Z,82.20
2023-03-30T02:02:55.829Z,82.20
2023-03-30T02:05:24.615Z,82.10
2023-03-30T02:08:01.607Z,82.00
2023-03-30T02:10:32.827Z,82.10
2023-03-30T02:13:01.030Z,82.30
2023-03-30T02:15:36.895Z,82.50
2023-03-30T02:18:05.017Z,82.60
2023-03-30T02:20:33.232Z,83.30
2023-03-30T02:23:01.539Z,82.70
2023-03-30T02:25:28.658Z,82.70
2023-03-30T02:27:56.286Z,82.80
2023-03-30T02:30:23.529Z,83.00
2023-03-30T02:32:54.935Z,83.10
2023-03-30T02:35:37.170Z,83.00
2023-03-30T02:38:40.768Z,83.00
2023-03-30T02:41:23.704Z,83.20
2023-03-30T02:44:26.110Z,83.40
2023-03-30T02:47:07.973Z,83.60
2023-03-30T02:49:57.115Z,83.40
2023-03-30T02:52:54.289Z,83.40
2023-03-30T02:55:45.985Z,83.40
2023-03-30T02:58:52.132Z,83.70
2023-03-30T03:01:29.177Z,84.10
2023-03-30T03:04:04.210Z,84.20
2023-03-30T03:06:39.999Z,84.40
2023-03-30T03:09:08.268Z,84.70
2023-03-30T03:11:36.153Z,84.60
2023-03-30T03:14:04.096Z,84.20
2023-03-30T03:16:33.433Z,84.30
2023-03-30T03:19:18.925Z,84.50
2023-03-30T03:21:49.275Z,84.80
2023-03-30T03:24:18.892Z,85.00
2023-03-30T03:27:12.016Z,84.90
2023-03-30T03:29:58.873Z,84.90
2023-03-30T03:32:26.140Z,85.10
2023-03-30T03:34:54.391Z,85.30
2023-03-30T03:37:22.096Z,85.40
2023-03-30T03:39:48.978Z,85.20
2023-03-30T03:42:16.623Z,85.30
2023-03-30T03:44:58.620Z,85.50
2023-03-30T03:47:25.781Z,85.60
2023-03-30T03:49:52.669Z,85.90
2023-03-30T03:52:19.831Z,86.00
2023-03-30T03:54:46.802Z,86.00
2023-03-30T03:57:13.933Z,85.70
2023-03-30T03:59:41.033Z,85.50
2023-03-30T04:02:08.093Z,85.50
2023-03-30T04:04:35.037Z,85.40
2023-03-30T04:07:02.355Z,85.50
2023-03-30T04:09:29.487Z,85.40
2023-03-30T04:12:02.191Z,85.60
2023-03-30T04:14:56.293Z,85.90
2023-03-30T04:17:28.940Z,86.00
2023-03-30T04:20:17.178Z,86.10
2023-03-30T04:23:02.798Z,86.30
2023-03-30T04:25:32.458Z,86.30
2023-03-30T04:28:31.762Z,86.20
2023-03-30T04:31:18.471Z,85.90
2023-03-30T04:34:04.900Z,86.10
2023-03-30T04:36:55.167Z,86.40
2023-03-30T04:39:22.108Z,86.60
2023-03-30T04:42:06.316Z,86.80
2023-03-30T04:44:47.687Z,86.90
2023-03-30T04:47:29.115Z,86.80
2023-03-30T04:50:13.628Z,86.60
2023-03-30T04:52:59.391Z,86.60
2023-03-30T04:55:58.790Z,86.60
2023-03-30T04:59:04.629Z,86.60
2023-03-30T05:01:45.809Z,86.90
2023-03-30T05:04:39.670Z,87.10
2023-03-30T05:07:32.732Z,87.20
2023-03-30T05:10:17.955Z,87.40
2023-03-30T05:12:57.643Z,87.50
2023-03-30T05:15:59.863Z,87.70
2023-03-30T05:18:26.775Z,87.70
2023-03-30T05:20:58.431Z,87.80
2023-03-30T05:23:26.307Z,87.90
2023-03-30T05:26:11.360Z,87.90
2023-03-30T05:28:52.491Z,87.80
2023-03-30T05:31:19.818Z,87.90
2023-03-30T05:34:16.144Z,88.10
2023-03-30T05:36:53.307Z,88.30
2023-03-30T05:39:35.460Z,88.40
2023-03-30T05:42:02.504Z,88.50
2023-03-30T05:45:01.447Z,88.70
2023-03-30T05:47:47.096Z,88.70
2023-03-30T05:50:34.463Z,88.80
2023-03-30T05:53:06.709Z,88.90
2023-03-30T05:56:02.999Z,89.00
2023-03-30T05:58:38.844Z,89.00
2023-03-30T06:01:26.340Z,89.10
2023-03-30T06:03:53.933Z,89.00
2023-03-30T06:06:21.556Z,89.10
2023-03-30T06:08:52.204Z,89.10
2023-03-30T06:11:23.082Z,89.20
2023-03-30T06:14:05.051Z,89.30
2023-03-30T06:16:32.548Z,89.10
2023-03-30T06:19:02.290Z,89.40
2023-03-30T06:21:29.909Z,89.40
2023-03-30T06:24:20.901Z,89.30
2023-03-30T06:26:49.511Z,88.60
2023-03-30T06:29:16.892Z,88.20
2023-03-30T06:31:43.881Z,88.00
2023-03-30T06:34:37.297Z,87.60
2023-03-30T06:37:07.326Z,87.30
2023-03-30T06:39:37.532Z,87.20
2023-03-30T06:42:06.460Z,87.10
2023-03-30T06:44:59.873Z,86.90
2023-03-30T06:47:27.235Z,87.00
2023-03-30T06:49:55.165Z,86.80
2023-03-30T06:52:38.220Z,86.70
2023-03-30T06:55:06.198Z,86.00
2023-03-30T06:57:33.492Z,85.30
2023-03-30T07:00:06.642Z,84.40
2023-03-30T07:02:40.645Z,84.20
2023-03-30T07:05:24.783Z,84.20
2023-03-30T07:08:07.991Z,84.40
2023-03-30T07:10:37.713Z,84.50
2023-03-30T07:13:07.447Z,84.50
2023-03-30T07:15:35.901Z,84.50
2023-03-30T07:18:03.354Z,84.30
2023-03-30T07:20:30.493Z,83.80
2023-03-30T07:23:17.993Z,83.40
2023-03-30T07:25:47.079Z,83.20
2023-03-30T07:28:20.526Z,82.90
2023-03-30T07:30:47.649Z,82.80
2023-03-30T07:33:15.872Z,82.80
2023-03-30T07:35:46.604Z,82.10
2023-03-30T07:38:16.744Z,81.80
2023-03-30T07:40:50.298Z,81.80
2023-03-30T07:43:18.340Z,81.50
2023-03-30T07:45:45.424Z,80.20
2023-03-30T07:48:18.627Z,80.40
2023-03-30T07:50:45.727Z,80.30
2023-03-30T07:53:13.033Z,79.70
2023-03-30T07:55:41.380Z,79.50
2023-03-30T07:58:17.047Z,78.50
2023-03-30T08:00:44.886Z,78.30
2023-03-30T08:03:50.850Z,78.30
2023-03-30T08:06:18.247Z,78.20
2023-03-30T08:08:48.286Z,77.80
2023-03-30T08:11:16.415Z,77.00
2023-03-30T08:13:44.549Z,77.20
2023-03-30T08:16:12.021Z,76.10
2023-03-30T08:18:41.407Z,75.50
2023-03-30T08:21:08.898Z,71.90
2023-03-30T08:23:36.064Z,72.00
2023-03-30T08:26:03.255Z,72.60
2023-03-30T08:28:30.922Z,72.60
2023-03-30T08:31:05.378Z,71.50
2023-03-30T08:33:32.691Z,71.00
2023-03-30T08:35:59.580Z,69.90
2023-03-30T08:38:26.658Z,69.30
2023-03-30T08:40:53.726Z,68.00
2023-03-30T08:43:33.348Z,68.40
2023-03-30T08:46:02.613Z,67.20
2023-03-30T08:48:35.598Z,68.10
2023-03-30T08:51:28.063Z,68.60
2023-03-30T08:54:07.132Z,68.50
2023-03-30T08:57:18.953Z,68.70
2023-03-30T09:00:11.620Z,68.30
2023-03-30T09:02:46.536Z,68.10
2023-03-30T09:05:30.424Z,69.40
2023-03-30T09:08:21.221Z,69.90
2023-03-30T09:11:01.356Z,69.90
2023-03-30T09:13:33.732Z,69.60
2023-03-30T09:16:32.702Z,70.50
2023-03-30T09:19:01.912Z,70.50
2023-03-30T09:21:31.572Z,70.80
2023-03-30T09:24:10.822Z,69.70
2023-03-30T09:27:02.302Z,69.50
2023-03-30T09:29:35.153Z,69.40
2023-03-30T09:32:17.709Z,70.00
2023-03-30T09:34:56.866Z,69.50
2023-03-30T09:37:25.104Z,68.40
2023-03-30T09:39:52.077Z,67.50
2023-03-30T09:42:34.222Z,68.50
2023-03-30T09:45:25.362Z,68.80
2023-03-30T09:47:52.782Z,69.40
2023-03-30T09:50:28.624Z,69.30
2023-03-30T09:52:57.835Z,69.50
2023-03-30T09:55:28.650Z,68.50
2023-03-30T09:58:10.112Z,67.80
2023-03-30T10:00:37.980Z,67.40
2023-03-30T10:03:07.510Z,65.90
2023-03-30T10:05:36.526Z,66.10
2023-03-30T10:08:07.242Z,66.30
2023-03-30T10:10:41.050Z,67.20
2023-03-30T10:13:16.328Z,67.60
2023-03-30T10:15:47.130Z,66.00
2023-03-30T10:18:28.750Z,65.50
2023-03-30T10:21:06.892Z,65.60
2023-03-30T10:23:44.987Z,65.70
2023-03-30T10:26:20.692Z,63.80
2023-03-30T10:29:02.937Z,64.40
2023-03-30T10:31:31.496Z,63.80
2023-03-30T10:34:01.205Z,64.10
2023-03-30T10:36:38.449Z,64.30
2023-03-30T10:39:28.552Z,64.40
2023-03-30T10:41:59.690Z,64.40
2023-03-30T10:44:42.994Z,63.60
2023-03-30T10:47:16.300Z,62.30
2023-03-30T10:49:54.521Z,61.70
2023-03-30T10:52:35.725Z,61.60
2023-03-30T10:55:22.930Z,61.60
2023-03-30T10:58:15.368Z,61.50
2023-03-30T11:00:53.292Z,59.40
2023-03-30T11:03:29.451Z,60.30
2023-03-30T11:06:19.431Z,59.40
2023-03-30T11:08:49.594Z,60.30
2023-03-30T11:11:23.791Z,59.20
2023-03-30T11:13:55.359Z,62.80
2023-03-30T11:16:30.959Z,61.50
2023-03-30T11:19:04.328Z,62.00
2023-03-30T11:22:18.817Z,60.40
2023-03-30T11:24:50.939Z,60.40
2023-03-30T11:27:30.815Z,62.80
2023-03-30T11:30:09.875Z,62.70
2023-03-30T11:32:47.557Z,61.30
2023-03-30T11:35:39.757Z,59.90
2023-03-30T11:38:32.982Z,59.60
2023-03-30T11:41:19.834Z,59.60
2023-03-30T11:43:46.983Z,59.40
2023-03-30T11:46:20.388Z,59.00
2023-03-30T11:49:14.450Z,58.60
2023-03-30T11:51:47.290Z,58.40
2023-03-30T11:54:52.579Z,57.40
2023-03-30T11:57:34.382Z,57.40
2023-03-30T12:00:19.303Z,56.70
2023-03-30T12:02:46.753Z,55.80
2023-03-30T12:05:27.499Z,56.20
2023-03-30T12:08:21.048Z,55.30
2023-03-30T12:11:19.583Z,56.20
2023-03-30T12:13:51.746Z,56.70
2023-03-30T12:16:44.709Z,55.10
2023-03-30T12:19:25.359Z,55.60
2023-03-30T12:21:55.052Z,56.80
2023-03-30T12:24:42.182Z,57.20
2023-03-30T12:27:11.869Z,57.00
2023-03-30T12:32:29.386Z,56.70
2023-03-30T12:34:58.173Z,56.30
2023-03-30T12:37:35.368Z,56.70
2023-03-30T12:40:10.557Z,57.30
2023-03-30T12:42:46.973Z,56.40
2023-03-30T12:45:28.861Z,55.40
2023-03-30T12:48:24.869Z,56.20
2023-03-30T12:50:57.536Z,54.90
2023-03-30T12:53:45.801Z,54.00
2023-03-30T12:56:20.595Z,54.10
2023-03-30T12:59:12.091Z,54.10
2023-03-30T13:01:47.900Z,54.10
2023-03-30T13:04:24.008Z,54.90
2023-03-30T13:06:56.511Z,55.40
2023-03-30T13:09:27.266Z,56.10
2023-03-30T13:11:54.172Z,56.40
2023-03-30T13:14:27.000Z,56.80
2023-03-30T13:16:53.935Z,56.40
2023-03-30T13:19:32.025Z,56.20
2023-03-30T13:22:19.915Z,56.30
2023-03-30T13:24:59.575Z,56.30
2023-03-30T13:27:30.828Z,56.00
2023-03-30T13:30:02.569Z,54.50
2023-03-30T13:32:36.264Z,54.90
2023-03-30T13:35:22.435Z,54.50
2023-03-30T13:38:04.254Z,55.50
2023-03-30T13:40:54.619Z,55.60
2023-03-30T13:44:04.815Z,55.30
2023-03-30T13:46:53.877Z,55.70
2023-03-30T13:49:29.440Z,56.30
2023-03-30T13:52:19.888Z,56.10
2023-03-30T13:54:47.491Z,57.70
2023-03-30T13:57:25.391Z,56.20
2023-03-30T13:59:59.229Z,56.80
2023-03-30T14:02:29.540Z,56.70
2023-03-30T14:05:20.455Z,56.70
2023-03-30T14:07:49.047Z,56.70
2023-03-30T14:10:21.490Z,55.40
2023-03-30T14:12:53.288Z,56.10
2023-03-30T14:15:28.245Z,55.10
2023-03-30T14:17:58.733Z,56.00
2023-03-30T14:20:36.170Z,54.60
2023-03-30T14:23:03.936Z,54.30
2023-03-30T14:25:39.129Z,55.50
2023-03-30T14:28:21.683Z,56.40
2023-03-30T14:31:03.060Z,56.40
2023-03-30T14:33:30.623Z,56.10
2023-03-30T14:35:59.988Z,57.50
2023-03-30T14:38:38.420Z,58.50
2023-03-30T14:41:27.688Z,57.90
2023-03-30T14:44:06.581Z,57.80
2023-03-30T14:46:46.990Z,57.30
2023-03-30T14:49:28.555Z,56.60
2023-03-30T14:52:09.075Z,55.60
2023-03-30T14:54:37.390Z,56.80
2023-03-30T14:57:07.757Z,56.60
2023-03-30T14:59:42.916Z,56.10
2023-03-30T15:02:22.393Z,56.30
2023-03-30T15:04:49.951Z,55.80
2023-03-30T15:07:17.994Z,56.20
2023-03-30T15:09:46.752Z,56.40
2023-03-30T15:12:48.582Z,56.60
2023-03-30T15:15:20.554Z,56.70
2023-03-30T15:17:50.468Z,57.20
2023-03-30T15:20:18.725Z,57.10
2023-03-30T15:22:48.644Z,57.70
2023-03-30T15:25:34.101Z,57.70
2023-03-30T15:28:19.138Z,57.20
2023-03-30T15:30:50.735Z,58.00
2023-03-30T15:33:39.645Z,57.50
2023-03-30T15:36:12.019Z,56.90
2023-03-30T15:39:18.946Z,56.10
2023-03-30T15:42:06.180Z,55.90
2023-03-30T15:44:38.375Z,55.80
2023-03-30T15:47:14.631Z,56.60
2023-03-30T15:49:46.069Z,58.30
2023-03-30T15:52:34.498Z,58.10
2023-03-30T15:55:11.568Z,58.00
2023-03-30T15:57:44.109Z,58.00
2023-03-30T16:00:20.780Z,58.00
2023-03-30T16:02:50.613Z,58.10
2023-03-30T16:05:20.899Z,58.30
2023-03-30T16:07:48.835Z,58.70
2023-03-30T16:10:19.570Z,58.80
2023-03-30T16:12:48.464Z,58.10
2023-03-30T16:15:17.733Z,58.10
2023-03-30T16:17:44.897Z,57.90
2023-03-30T16:20:14.884Z,58.10
2023-03-30T16:22:41.855Z,58.60
2023-03-30T16:25:09.485Z,58.80
2023-03-30T16:27:37.009Z,59.60
2023-03-30T16:30:18.835Z,60.70
2023-03-30T16:32:46.237Z,61.60
2023-03-30T16:35:13.699Z,61.90
2023-03-30T16:37:41.977Z,62.30
2023-03-30T16:40:27.727Z,62.30
2023-03-30T16:42:54.724Z,62.60
2023-03-30T16:45:21.692Z,62.90
2023-03-30T16:47:48.688Z,63.40
2023-03-30T16:50:39.582Z,63.70
2023-03-30T16:53:07.651Z,64.00
2023-03-30T16:55:35.298Z,63.90
2023-03-30T16:58:03.036Z,63.90
2023-03-30T17:00:33.602Z,63.80
2023-03-30T17:03:00.876Z,63.70
2023-03-30T17:05:28.021Z,64.40
2023-03-30T17:07:55.327Z,64.20
2023-03-30T17:10:26.342Z,64.40
2023-03-30T17:12:54.374Z,64.90
2023-03-30T17:15:22.362Z,65.30
2023-03-30T17:17:50.307Z,65.40
2023-03-30T17:20:37.342Z,65.40
2023-03-30T17:23:05.246Z,65.40
2023-03-30T17:25:32.423Z,65.50
2023-03-30T17:27:59.754Z,65.80
2023-03-30T17:30:34.408Z,66.00
2023-03-30T17:33:01.659Z,66.40
2023-03-30T17:35:28.627Z,66.50
2023-03-30T17:37:55.765Z,66.70
2023-03-30T17:40:28.173Z,66.70
2023-03-30T17:42:55.948Z,67.10
2023-03-30T17:45:25.598Z,67.20
2023-03-30T17:47:53.302Z,67.70
2023-03-30T17:50:27.062Z,68.10
2023-03-30T17:52:55.994Z,68.40
2023-03-30T17:55:26.114Z,68.50
2023-03-30T17:57:53.318Z,68.60
2023-03-30T18:00:24.898Z,68.70
2023-03-30T18:02:52.764Z,68.80
2023-03-30T18:05:21.237Z,68.80
2023-03-30T18:07:48.475Z,69.40
2023-03-30T18:10:51.839Z,69.10
2023-03-30T18:13:20.112Z,69.80
2023-03-30T18:15:49.663Z,69.80
2023-03-30T18:18:22.790Z,69.90
2023-03-30T18:20:52.856Z,69.90
2023-03-30T18:23:20.335Z,70.00
2023-03-30T18:25:47.859Z,70.20
2023-03-30T18:28:26.009Z,70.60
2023-03-30T18:30:55.409Z,71.30
2023-03-30T18:33:22.662Z,71.80
2023-03-30T18:35:51.139Z,72.30
2023-03-30T18:38:20.760Z,72.40
2023-03-30T18:40:49.631Z,72.60
2023-03-30T18:43:17.214Z,73.20
2023-03-30T18:45:49.532Z,73.70
2023-03-30T18:48:19.407Z,74.70
2023-03-30T18:50:51.567Z,75.20
2023-03-30T18:53:21.599Z,76.00
2023-03-30T18:55:51.501Z,77.20
2023-03-30T18:58:21.447Z,77.60
2023-03-30T19:00:49.991Z,78.10
2023-03-30T19:03:18.544Z,78.40
2023-03-30T19:05:46.445Z,78.60
2023-03-30T19:08:16.374Z,78.90
2023-03-30T19:10:45.254Z,79.10
2023-03-30T19:13:13.454Z,79.40
2023-03-30T19:15:40.745Z,79.60
2023-03-30T19:18:08.742Z,79.80
2023-03-30T19:20:39.947Z,79.90
2023-03-30T19:23:08.156Z,80.00
2023-03-30T19:25:35.533Z,80.40
2023-03-30T19:28:04.493Z,80.60
2023-03-30T19:30:34.793Z,80.80
2023-03-30T19:33:05.930Z,81.00
2023-03-30T19:35:33.198Z,81.20
2023-03-30T19:38:00.912Z,81.30
2023-03-30T19:40:28.333Z,81.50
2023-03-30T19:42:55.402Z,81.80
2023-03-30T19:45:23.621Z,82.10
2023-03-30T19:47:51.371Z,82.20
2023-03-30T19:50:20.571Z,82.50
2023-03-30T19:52:50.077Z,82.60
2023-03-30T19:55:20.512Z,82.90
2023-03-30T19:57:47.787Z,83.50
2023-03-30T20:00:17.125Z,83.90
2023-03-30T20:02:50.752Z,84.20
2023-03-30T20:05:20.813Z,84.50
2023-03-30T20:07:48.500Z,85.20
2023-03-30T20:10:19.110Z,84.70
2023-03-30T20:12:46.894Z,84.60
2023-03-30T20:15:14.428Z,84.50
2023-03-30T20:17:42.394Z,84.30
2023-03-30T20:20:12.627Z,84.30
2023-03-30T20:22:42.687Z,84.20
2023-03-30T20:25:12.556Z,84.30
2023-03-30T20:27:40.290Z,84.30
2023-03-30T20:30:08.298Z,84.10
2023-03-30T20:32:35.647Z,83.90
2023-03-30T20:35:03.911Z,84.20
2023-03-30T20:37:30.861Z,84.30
2023-03-30T20:40:03.737Z,84.60
2023-03-30T20:42:31.892Z,84.60
2023-03-30T20:44:59.645Z,84.70
2023-03-30T20:47:31.071Z,84.70
2023-03-30T20:49:59.183Z,84.80
2023-03-30T20:52:27.146Z,84.90
2023-03-30T20:54:54.521Z,84.70
2023-03-30T20:57:21.784Z,84.70
2023-03-30T20:59:49.716Z,84.70
2023-03-30T21:02:17.445Z,84.70
2023-03-30T21:04:45.233Z,84.60
2023-03-30T21:07:12.689Z,84.60
2023-03-30T21:09:40.201Z,84.70
2023-03-30T21:12:08.578Z,84.70
2023-03-30T21:14:35.911Z,84.80
2023-03-30T21:17:02.995Z,85.00
2023-03-30T21:19:30.013Z,85.20
2023-03-30T21:21:57.068Z,85.30
2023-03-30T21:24:24.127Z,85.30
2023-03-30T21:26:51.262Z,85.30
2023-03-30T21:29:18.469Z,85.40
2023-03-30T21:31:45.569Z,85.70
2023-03-30T21:34:13.189Z,85.60
2023-03-30T21:36:40.226Z,85.70
2023-03-30T21:39:07.370Z,85.80
2023-03-30T21:41:34.286Z,85.80
2023-03-30T21:44:01.416Z,85.80
2023-03-30T21:46:28.484Z,85.80
2023-03-30T21:48:55.526Z,85.70
2023-03-30T21:51:27.795Z,85.70
2023-03-30T21:53:56.502Z,85.40
2023-03-30T21:56:26.016Z,85.50
2023-03-30T21:58:53.250Z,85.70
2023-03-30T22:01:21.827Z,86.00
2023-03-30T22:03:48.871Z,86.10
2023-03-30T22:06:17.355Z,86.00
2023-03-30T22:08:45.698Z,85.80
2023-03-30T22:11:15.966Z,85.50
2023-03-30T22:13:44.020Z,85.30
2023-03-30T22:16:22.649Z,85.60
2023-03-30T22:18:50.601Z,85.60
2023-03-30T22:21:20.761Z,85.50
2023-03-30T22:23:47.945Z,85.50
2023-03-30T22:26:15.574Z,85.30
2023-03-30T22:28:43.023Z,85.00
2023-03-30T22:31:13.099Z,84.70
2023-03-30T22:33:40.626Z,84.30
2023-03-30T22:36:16.869Z,83.90
2023-03-30T22:38:44.002Z,83.20
2023-03-30T22:41:11.093Z,83.00
2023-03-30T22:43:38.119Z,82.90
2023-03-30T22:46:06.770Z,83.20
2023-03-30T22:48:35.556Z,83.50
2023-03-30T22:51:08.357Z,83.60
2023-03-30T22:53:35.843Z,83.80
2023-03-30T22:56:02.870Z,84.00
2023-03-30T22:58:29.995Z,83.90
2023-03-30T23:01:06.968Z,84.10
2023-03-30T23:03:34.608Z,84.20
2023-03-30T23:06:01.760Z,84.20
2023-03-30T23:08:30.018Z,84.30
2023-03-30T23:11:04.390Z,84.70
2023-03-30T23:13:32.643Z,84.90
2023-03-30T23:15:59.671Z,85.20
2023-03-30T23:18:27.099Z,85.20
2023-03-30T23:20:55.656Z,85.40
2023-03-30T23:23:22.790Z,85.40
2023-03-30T23:25:51.075Z,85.50
2023-03-30T23:28:18.528Z,85.70
2023-03-30T23:30:45.930Z,86.00
2023-03-30T23:33:13.539Z,85.80
2023-03-30T23:35:47.404Z,85.50
2023-03-30T23:38:14.469Z,85.70
2023-03-30T23:40:41.579Z,86.00
2023-03-30T23:43:08.813Z,86.20
2023-03-30T23:45:35.868Z,86.50
2023-03-30T23:48:02.884Z,86.40
2023-03-30T23:50:29.713Z,86.10
2023-03-30T23:52:57.744Z,86.20
2023-03-30T23:55:24.964Z,86.50
2023-03-30T23:57:51.882Z,86.90
